Time;durP1;ratioP1;P1;durP2;ratioP2;P2;SDS_P1;SDS_P2;PMS_P1;PMS_P2;Temp;Humidity;BMP_temperature;BMP_pressure;BME280_temperature;BME280_humidity;BME280_pressure;Samples;Min_cycle;Max_cycle;Signal;HPM_P1;HPM_P2
2022/10/09 00:01:10;;;;;;;3.92;2.08;;;10.00;99.90;;;;;;5113976;28;20024;-86
2022/10/09 00:03:38;;;;;;;3.47;1.55;;;9.90;99.90;;;;;;5114067;28;20030;-86
2022/10/09 00:06:05;;;;;;;4.75;1.60;;;9.90;99.90;;;;;;5114025;28;20026;-84
2022/10/09 00:08:32;;;;;;;5.22;1.92;;;9.90;99.90;;;;;;5113379;28;20076;-85
2022/10/09 00:10:58;;;;;;;5.43;1.75;;;10.10;99.90;;;;;;5109561;28;20419;-84
2022/10/09 00:13:23;;;;;;;3.25;1.42;;;9.90;99.90;;;;;;5114025;28;20076;-85
2022/10/09 00:15:49;;;;;;;4.63;1.55;;;9.90;99.90;;;;;;5116802;28;20031;-85
2022/10/09 00:18:16;;;;;;;2.80;1.40;;;9.90;99.90;;;;;;5106402;28;20031;-85
2022/10/09 00:20:45;;;;;;;3.20;1.35;;;9.80;99.90;;;;;;5114116;28;20094;-86
2022/10/09 00:23:16;;;;;;;3.58;1.35;;;9.80;99.90;;;;;;5106339;28;20045;-86
2022/10/09 00:25:57;;;;;;;3.90;1.90;;;9.80;99.90;;;;;;5108711;28;20019;-86
2022/10/09 00:28:24;;;;;;;5.00;1.50;;;9.80;99.90;;;;;;5098877;28;20111;-86
2022/10/09 00:30:51;;;;;;;4.00;2.17;;;9.70;99.90;;;;;;5109637;28;20027;-86
2022/10/09 00:33:17;;;;;;;5.72;2.03;;;10.30;99.90;;;;;;5109674;28;20044;-86
2022/10/09 00:35:43;;;;;;;3.95;1.50;;;9.70;99.90;;;;;;5111669;28;20386;-86
2022/10/09 00:38:09;;;;;;;3.53;1.65;;;9.60;99.90;;;;;;5105091;28;20028;-85
2022/10/09 00:40:36;;;;;;;2.88;1.23;;;9.60;99.90;;;;;;5107110;28;20035;-85
2022/10/09 00:43:03;;;;;;;2.80;1.30;;;10.10;99.90;;;;;;5099332;28;20492;-86
2022/10/09 00:45:30;;;;;;;5.15;1.13;;;9.60;99.90;;;;;;5104037;28;20023;-85
2022/10/09 00:48:00;;;;;;;4.70;1.50;;;9.90;99.90;;;;;;5105535;28;20016;-85
2022/10/09 00:50:47;;;;;;;3.15;1.48;;;9.60;99.90;;;;;;5094429;27;20020;-85
2022/10/09 00:53:16;;;;;;;3.30;1.20;;;9.60;99.90;;;;;;5105402;28;20053;-85
2022/10/09 00:55:42;;;;;;;3.38;1.30;;;9.60;99.90;;;;;;5102289;28;20023;-85
2022/10/09 00:58:09;;;;;;;3.95;1.60;;;9.60;99.90;;;;;;5113973;28;20023;-85
2022/10/09 01:00:34;;;;;;;3.30;1.10;;;9.50;99.90;;;;;;5103713;28;20057;-85
2022/10/09 01:03:00;;;;;;;3.67;1.65;;;9.50;99.90;;;;;;5114556;28;20027;-85
2022/10/09 01:05:49;;;;;;;5.28;1.45;;;9.50;99.90;;;;;;5113631;28;20020;-85
2022/10/09 01:08:29;;;;;;;2.97;1.10;;;9.50;99.90;;;;;;5073432;28;20035;-86
2022/10/09 01:11:00;;;;;;;2.67;1.20;;;9.50;99.90;;;;;;5109729;28;20057;-85
2022/10/09 01:13:35;;;;;;;4.32;0.95;;;9.40;99.90;;;;;;5114475;28;20027;-85
2022/10/09 01:16:10;;;;;;;4.18;1.35;;;9.50;99.90;;;;;;5113176;28;20900;-85
2022/10/09 01:18:44;;;;;;;4.88;1.67;;;9.40;99.90;;;;;;5102612;27;20122;-85
2022/10/09 01:21:50;;;;;;;2.28;1.05;;;9.80;99.90;;;;;;5112935;28;20038;-86
2022/10/09 01:24:36;;;;;;;2.65;1.30;;;9.40;99.90;;;;;;5111764;28;20062;-85
2022/10/09 01:27:14;;;;;;;4.05;1.58;;;9.40;99.90;;;;;;5114740;28;20077;-85
2022/10/09 01:29:46;;;;;;;4.18;1.40;;;9.40;99.90;;;;;;5106269;28;20027;-85
2022/10/09 01:32:17;;;;;;;3.25;1.25;;;9.60;99.90;;;;;;5110241;28;20024;-86
2022/10/09 01:34:44;;;;;;;5.60;1.65;;;9.40;99.90;;;;;;5110433;27;20495;-85
2022/10/09 01:37:12;;;;;;;3.50;1.40;;;9.40;99.90;;;;;;5112821;28;20506;-85
2022/10/09 01:39:38;;;;;;;3.55;1.73;;;9.30;99.90;;;;;;5107747;28;20053;-86
2022/10/09 01:42:05;;;;;;;4.32;1.25;;;9.40;99.90;;;;;;5111540;28;20035;-85
2022/10/09 01:44:32;;;;;;;3.50;1.27;;;9.20;99.90;;;;;;5099515;28;20051;-85
2022/10/09 01:46:58;;;;;;;5.60;1.40;;;9.10;99.90;;;;;;5111366;28;20023;-86
2022/10/09 01:49:46;;;;;;;3.72;1.08;;;9.10;99.90;;;;;;5112310;28;20016;-85
2022/10/09 01:52:34;;;;;;;5.72;1.30;;;9.10;99.90;;;;;;5107987;28;20016;-85
2022/10/09 01:55:21;;;;;;;2.20;1.05;;;8.50;99.90;;;;;;5100858;28;20020;-85
2022/10/09 01:57:59;;;;;;;4.13;1.55;;;9.10;99.90;;;;;;5109818;28;20023;-86
2022/10/09 02:00:27;;;;;;;3.17;1.38;;;9.00;99.90;;;;;;5112898;28;20023;-85
2022/10/09 02:02:55;;;;;;;3.50;1.25;;;9.00;99.90;;;;;;5105557;28;20080;-85
2022/10/09 02:05:24;;;;;;;6.05;1.58;;;9.50;99.90;;;;;;5112104;28;20671;-85
2022/10/09 02:07:50;;;;;;;3.20;1.20;;;8.70;99.90;;;;;;5107062;28;20020;-86
2022/10/09 02:10:17;;;;;;;3.20;1.40;;;9.50;99.90;;;;;;5112118;28;20023;-85
2022/10/09 02:12:48;;;;;;;3.35;1.10;;;9.00;99.90;;;;;;5109922;28;20023;-86
2022/10/09 02:15:15;;;;;;;2.83;1.33;;;9.00;99.90;;;;;;5112727;28;20047;-86
2022/10/09 02:17:45;;;;;;;2.22;1.10;;;9.00;99.90;;;;;;5111070;28;20073;-85
2022/10/09 02:20:34;;;;;;;3.33;1.00;;;9.10;99.90;;;;;;5108882;27;20076;-85
2022/10/09 02:23:03;;;;;;;2.85;1.10;;;9.00;99.90;;;;;;5107739;28;20023;-85
2022/10/09 02:25:29;;;;;;;3.78;1.27;;;9.00;99.90;;;;;;5111687;28;20023;-85
2022/10/09 02:27:58;;;;;;;2.33;0.90;;;9.00;99.90;;;;;;5104908;28;20030;-86
2022/10/09 02:30:25;;;;;;;3.35;1.20;;;8.90;99.90;;;;;;5104359;28;20370;-85
2022/10/09 02:32:54;;;;;;;3.35;1.00;;;9.00;99.90;;;;;;5103487;28;20071;-85
2022/10/09 02:35:20;;;;;;;2.15;1.00;;;9.00;99.90;;;;;;5113044;28;20104;-85
2022/10/09 02:37:47;;;;;;;3.65;1.10;;;9.00;99.90;;;;;;5111094;28;20038;-86
2022/10/09 02:40:13;;;;;;;3.05;1.17;;;9.10;99.90;;;;;;5110839;28;20488;-85
2022/10/09 02:42:39;;;;;;;2.63;1.05;;;8.90;99.90;;;;;;5104898;28;20023;-85
2022/10/09 02:45:05;;;;;;;1.73;0.80;;;9.20;99.90;;;;;;5112675;28;20066;-85
2022/10/09 02:47:31;;;;;;;2.72;1.00;;;8.90;99.90;;;;;;5107572;28;20495;-85
2022/10/09 02:49:57;;;;;;;1.88;1.00;;;9.40;99.90;;;;;;5105362;27;20072;-85
2022/10/09 02:52:22;;;;;;;3.30;0.80;;;8.80;99.90;;;;;;5116999;27;20377;-85
2022/10/09 02:54:51;;;;;;;3.78;1.13;;;8.80;99.90;;;;;;5117627;28;20011;-85
2022/10/09 02:57:16;;;;;;;4.13;1.17;;;8.80;99.90;;;;;;5116439;28;20034;-85
2022/10/09 02:59:42;;;;;;;1.52;0.50;;;8.80;99.90;;;;;;5117397;27;20023;-85
2022/10/09 03:02:08;;;;;;;3.75;1.00;;;8.80;99.90;;;;;;5119790;28;20027;-85
2022/10/09 03:04:33;;;;;;;1.80;0.70;;;8.80;99.90;;;;;;5110706;28;20499;-85
2022/10/09 03:06:59;;;;;;;2.20;0.75;;;8.80;99.90;;;;;;5117911;28;20031;-85
2022/10/09 03:09:24;;;;;;;2.72;0.75;;;9.00;99.90;;;;;;5113340;27;20051;-85
2022/10/09 03:11:50;;;;;;;4.03;0.80;;;8.80;99.90;;;;;;5115921;28;20479;-85
2022/10/09 03:14:15;;;;;;;2.35;0.75;;;8.80;99.90;;;;;;5119660;28;20828;-85
2022/10/09 03:16:41;;;;;;;3.95;0.90;;;9.20;99.90;;;;;;5117703;27;20023;-85
2022/10/09 03:19:06;;;;;;;1.83;0.80;;;8.80;99.90;;;;;;5116838;28;20023;-85
2022/10/09 03:21:32;;;;;;;2.85;0.93;;;8.80;99.90;;;;;;5117869;27;20510;-85
2022/10/09 03:23:58;;;;;;;1.58;0.60;;;8.80;99.90;;;;;;5117673;28;20022;-85
2022/10/09 03:26:25;;;;;;;2.55;0.85;;;8.80;99.90;;;;;;5116307;27;20042;-85
2022/10/09 03:28:53;;;;;;;1.83;0.82;;;8.80;99.90;;;;;;5115728;27;20433;-85
2022/10/09 03:31:21;;;;;;;2.45;0.70;;;8.80;99.90;;;;;;5102517;28;20073;-85
2022/10/09 03:33:46;;;;;;;3.92;1.00;;;8.80;99.90;;;;;;5119290;28;20065;-85
2022/10/09 03:36:12;;;;;;;2.63;0.80;;;8.80;99.90;;;;;;5115060;27;20032;-85
2022/10/09 03:38:38;;;;;;;3.42;1.10;;;8.80;99.90;;;;;;5111476;28;20051;-85
2022/10/09 03:41:05;;;;;;;2.88;0.90;;;8.80;99.90;;;;;;5121101;28;20075;-85
2022/10/09 03:43:31;;;;;;;2.75;0.90;;;8.80;99.90;;;;;;5105741;28;20096;-86
2022/10/09 03:45:57;;;;;;;3.00;0.90;;;8.80;99.90;;;;;;5119408;27;20034;-86
2022/10/09 03:48:23;;;;;;;2.85;0.98;;;8.80;99.90;;;;;;5121232;28;20055;-86
2022/10/09 03:50:49;;;;;;;1.42;0.70;;;8.80;99.90;;;;;;5121001;27;20034;-85
2022/10/09 03:53:15;;;;;;;2.60;0.70;;;8.70;99.90;;;;;;5116751;27;20035;-86
2022/10/09 03:55:41;;;;;;;6.00;0.73;;;8.70;99.90;;;;;;5116926;28;20079;-86
2022/10/09 03:58:07;;;;;;;2.05;0.68;;;8.70;99.90;;;;;;5117603;27;20019;-85
2022/10/09 04:00:34;;;;;;;3.80;1.00;;;8.90;99.90;;;;;;5115449;27;20024;-85
2022/10/09 04:02:59;;;;;;;2.17;0.85;;;8.70;99.90;;;;;;5113411;28;20020;-86
2022/10/09 04:05:25;;;;;;;2.75;1.02;;;8.70;99.90;;;;;;5100101;28;20030;-85
2022/10/09 04:07:51;;;;;;;5.60;1.15;;;8.70;99.90;;;;;;5105355;27;20031;-85
2022/10/09 04:10:17;;;;;;;2.33;0.90;;;8.70;99.90;;;;;;5100455;28;20016;-86
2022/10/09 04:12:42;;;;;;;3.63;0.68;;;8.70;99.90;;;;;;5103215;28;20194;-85
2022/10/09 04:15:09;;;;;;;2.92;0.73;;;8.70;99.90;;;;;;5103406;27;20039;-84
2022/10/09 04:17:35;;;;;;;2.05;0.80;;;8.70;99.90;;;;;;5109914;28;21386;-85
2022/10/09 04:20:01;;;;;;;2.38;0.80;;;8.70;99.90;;;;;;5114428;28;20111;-85
2022/10/09 04:22:27;;;;;;;3.33;1.00;;;8.70;99.90;;;;;;5113512;28;20114;-85
2022/10/09 04:24:52;;;;;;;2.50;0.90;;;8.70;99.90;;;;;;5110972;27;20051;-85
2022/10/09 04:27:18;;;;;;;2.22;0.82;;;8.70;99.90;;;;;;5112909;28;20023;-85
2022/10/09 04:29:43;;;;;;;2.75;0.90;;;8.70;99.90;;;;;;5114282;28;20770;-85
2022/10/09 04:32:09;;;;;;;6.28;1.05;;;8.70;99.90;;;;;;5112855;27;20024;-85
2022/10/09 04:34:35;;;;;;;2.30;0.73;;;8.70;99.90;;;;;;5114012;28;20023;-85
2022/10/09 04:37:00;;;;;;;2.15;0.88;;;8.70;99.90;;;;;;5113393;28;20028;-85
2022/10/09 04:39:26;;;;;;;2.92;0.98;;;8.70;99.90;;;;;;5110674;28;20026;-85
2022/10/09 04:41:52;;;;;;;2.55;1.35;;;8.60;99.90;;;;;;5115406;28;20079;-85
2022/10/09 04:44:17;;;;;;;3.30;0.85;;;8.60;99.90;;;;;;5113024;28;20687;-85
2022/10/09 04:46:43;;;;;;;2.78;0.90;;;8.70;99.90;;;;;;5112517;28;20058;-85
2022/10/09 04:49:13;;;;;;;2.75;0.80;;;8.70;99.90;;;;;;5112381;28;20016;-85
2022/10/09 04:51:39;;;;;;;2.75;1.42;;;8.70;99.90;;;;;;5134387;22;20052;-77
2022/10/09 04:54:05;;;;;;;2.25;0.85;;;8.70;99.90;;;;;;5104038;28;20375;-78
2022/10/09 04:56:31;;;;;;;3.20;1.23;;;8.70;99.90;;;;;;5108412;28;20050;-77
2022/10/09 04:58:56;;;;;;;2.28;0.68;;;8.70;99.90;;;;;;5105998;28;20024;-77
2022/10/09 05:01:24;;;;;;;3.97;0.93;;;8.70;99.90;;;;;;5108701;28;20024;-78
2022/10/09 05:03:51;;;;;;;3.95;0.93;;;8.70;99.90;;;;;;5107120;28;20047;-77
2022/10/09 05:06:18;;;;;;;2.75;0.82;;;8.70;99.90;;;;;;5107335;28;20089;-76
2022/10/09 05:08:44;;;;;;;3.42;0.98;;;8.70;99.90;;;;;;5101029;28;20396;-79
2022/10/09 05:11:16;;;;;;;2.95;1.15;;;8.70;99.90;;;;;;5107107;28;20024;-76
2022/10/09 05:13:45;;;;;;;3.72;1.00;;;8.70;99.90;;;;;;5098126;28;20027;-78
2022/10/09 05:16:14;;;;;;;2.17;0.80;;;8.70;99.90;;;;;;5106981;28;20031;-78
2022/10/09 05:19:06;;;;;;;1.73;0.85;;;8.70;99.90;;;;;;5105020;28;20053;-76
2022/10/09 05:21:31;;;;;;;2.92;1.05;;;8.70;99.90;;;;;;5098729;28;20032;-78
2022/10/09 05:23:57;;;;;;;2.35;0.80;;;8.70;99.90;;;;;;5108601;28;20087;-78
2022/10/09 05:26:24;;;;;;;3.38;1.02;;;8.60;99.90;;;;;;5107791;28;20083;-76
2022/10/09 05:28:50;;;;;;;1.95;0.93;;;8.60;99.90;;;;;;5100815;28;20067;-77
2022/10/09 05:31:23;;;;;;;3.28;0.93;;;8.60;99.90;;;;;;5106696;28;20450;-77
2022/10/09 05:33:48;;;;;;;1.60;0.70;;;8.60;99.90;;;;;;5095689;28;20020;-78
2022/10/09 05:36:15;;;;;;;3.22;0.68;;;8.60;99.90;;;;;;5095448;28;20370;-78
2022/10/09 05:38:40;;;;;;;4.03;0.90;;;8.60;99.90;;;;;;5096429;28;20021;-79
2022/10/09 05:41:08;;;;;;;3.33;1.00;;;8.60;99.90;;;;;;5097547;28;20084;-78
2022/10/09 05:43:36;;;;;;;5.05;0.93;;;8.60;99.90;;;;;;5107394;28;20024;-79
2022/10/09 05:46:22;;;;;;;3.38;1.13;;;8.60;99.90;;;;;;5104633;28;20024;-78
2022/10/09 05:48:59;;;;;;;3.08;0.90;;;8.60;99.90;;;;;;5091335;28;20453;-77
2022/10/09 05:51:28;;;;;;;3.13;1.10;;;8.60;99.90;;;;;;5105391;28;20075;-79
2022/10/09 05:53:55;;;;;;;2.38;0.90;;;8.70;99.90;;;;;;5105999;28;20030;-78
2022/10/09 05:56:27;;;;;;;4.63;1.83;;;8.60;99.90;;;;;;5097701;28;20024;-78
2022/10/09 05:58:58;;;;;;;2.97;1.00;;;8.60;99.90;;;;;;5104608;28;20023;-76
2022/10/09 06:01:26;;;;;;;4.63;0.98;;;8.60;99.90;;;;;;5105960;28;20069;-79
2022/10/09 06:03:54;;;;;;;2.80;1.20;;;8.60;99.90;;;;;;5103078;28;20016;-79
2022/10/09 06:06:21;;;;;;;2.35;0.63;;;8.60;99.90;;;;;;5100248;28;20434;-78
2022/10/09 06:08:47;;;;;;;3.63;1.10;;;8.60;99.90;;;;;;5104971;28;20392;-79
2022/10/09 06:11:15;;;;;;;6.20;1.20;;;8.60;99.90;;;;;;5102197;28;20030;-79
2022/10/09 06:13:42;;;;;;;4.70;0.85;;;8.60;99.90;;;;;;5105209;28;20075;-78
2022/10/09 06:16:10;;;;;;;4.00;0.98;;;8.60;99.90;;;;;;5099019;28;20480;-79
2022/10/09 06:18:36;;;;;;;2.53;0.95;;;8.70;99.90;;;;;;5106192;28;20035;-79
2022/10/09 06:21:02;;;;;;;3.58;1.08;;;8.60;99.90;;;;;;5106455;28;20028;-79
2022/10/09 06:23:28;;;;;;;3.05;1.10;;;8.70;99.90;;;;;;5101583;28;20031;-78
2022/10/09 06:26:01;;;;;;;2.65;0.95;;;8.70;99.90;;;;;;5103950;28;20135;-79
2022/10/09 06:28:30;;;;;;;;;;;8.80;99.90;;;;;;5103922;28;20035;-78
2022/10/09 06:31:06;;;;;;;3.33;0.95;;;8.80;99.90;;;;;;5104575;28;20335;-78
2022/10/09 06:33:37;;;;;;;2.40;1.10;;;8.90;99.90;;;;;;5103783;28;20028;-78
2022/10/09 06:36:06;;;;;;;2.50;0.88;;;8.90;99.90;;;;;;5104535;28;20484;-79
2022/10/09 06:38:36;;;;;;;3.17;0.95;;;9.00;99.90;;;;;;5100699;28;20020;-77
2022/10/09 06:41:03;;;;;;;2.60;0.82;;;9.10;99.90;;;;;;5095261;28;20055;-79
2022/10/09 06:43:29;;;;;;;3.92;1.00;;;9.20;99.90;;;;;;5102815;28;20087;-77
2022/10/09 06:45:55;;;;;;;2.78;0.70;;;9.20;99.90;;;;;;5103620;28;20013;-79
2022/10/09 06:48:21;;;;;;;3.22;1.00;;;9.30;99.90;;;;;;5101239;28;20410;-78
2022/10/09 06:50:46;;;;;;;4.18;1.20;;;9.40;99.90;;;;;;5100231;28;20016;-79
2022/10/09 06:53:12;;;;;;;1.85;0.70;;;9.50;99.90;;;;;;5098242;28;20024;-79
2022/10/09 06:55:37;;;;;;;2.90;0.95;;;9.60;99.90;;;;;;5104272;28;20035;-78
2022/10/09 06:58:03;;;;;;;2.40;0.90;;;9.60;99.90;;;;;;5103449;28;20121;-79
2022/10/09 07:00:29;;;;;;;3.35;0.95;;;9.70;99.90;;;;;;5104983;28;20042;-78
2022/10/09 07:02:54;;;;;;;1.83;0.80;;;9.80;99.90;;;;;;5103881;28;20043;-79
2022/10/09 07:05:20;;;;;;;3.35;1.15;;;9.90;99.90;;;;;;5104334;28;20083;-77
2022/10/09 07:07:46;;;;;;;3.25;1.10;;;9.90;99.90;;;;;;5105533;28;20039;-78
2022/10/09 07:10:11;;;;;;;2.53;0.93;;;10.00;99.90;;;;;;5102489;28;20027;-79
2022/10/09 07:12:37;;;;;;;2.65;1.05;;;10.00;99.90;;;;;;5102586;28;20035;-79
2022/10/09 07:15:05;;;;;;;2.88;0.88;;;10.00;99.90;;;;;;5102989;28;20028;-79
2022/10/09 07:17:31;;;;;;;2.90;1.00;;;10.00;99.90;;;;;;5099092;28;20101;-77
2022/10/09 07:19:57;;;;;;;3.08;1.00;;;10.10;99.90;;;;;;5102373;28;20016;-79
2022/10/09 07:22:23;;;;;;;2.65;1.00;;;10.20;99.90;;;;;;5102647;28;20021;-78
2022/10/09 07:24:49;;;;;;;2.67;0.88;;;10.20;99.90;;;;;;5107806;28;20059;-76
2022/10/09 07:27:16;;;;;;;2.60;0.90;;;10.30;99.90;;;;;;5099221;28;20043;-77
2022/10/09 07:29:42;;;;;;;2.17;0.82;;;10.30;99.90;;;;;;5106596;28;20039;-78
2022/10/09 07:32:07;;;;;;;2.83;0.95;;;10.40;99.90;;;;;;5102258;28;20028;-78
2022/10/09 07:34:33;;;;;;;14.57;4.72;;;10.50;99.90;;;;;;5103139;28;20469;-79
2022/10/09 07:36:58;;;;;;;23.73;7.63;;;10.60;99.90;;;;;;5103615;28;20028;-77
2022/10/09 07:39:24;;;;;;;17.13;5.18;;;10.60;99.90;;;;;;5103922;28;20512;-79
2022/10/09 07:41:51;;;;;;;6.05;2.25;;;10.70;99.90;;;;;;5103922;28;20443;-79
2022/10/09 07:44:17;;;;;;;3.28;1.15;;;10.70;99.90;;;;;;5105306;28;20035;-78
2022/10/09 07:46:43;;;;;;;4.03;1.35;;;10.80;99.90;;;;;;5102079;28;20099;-76
2022/10/09 07:49:09;;;;;;;4.88;1.23;;;10.90;99.90;;;;;;5107205;28;20027;-78
2022/10/09 07:51:35;;;;;;;2.97;1.00;;;10.90;99.90;;;;;;5105551;28;20024;-79
2022/10/09 07:54:01;;;;;;;3.15;1.50;;;11.00;99.90;;;;;;5106278;28;20462;-77
2022/10/09 07:56:29;;;;;;;2.88;1.10;;;11.10;99.90;;;;;;5104330;28;20442;-79
2022/10/09 07:59:03;;;;;;;3.63;1.20;;;11.10;99.90;;;;;;5104600;28;20024;-80
2022/10/09 08:01:31;;;;;;;4.57;0.93;;;11.20;99.90;;;;;;5102864;28;20036;-79
2022/10/09 08:03:57;;;;;;;3.00;1.38;;;11.30;99.90;;;;;;5092688;28;20029;-79
2022/10/09 08:06:24;;;;;;;3.28;1.20;;;11.30;99.90;;;;;;5092675;28;20091;-80
2022/10/09 08:08:52;;;;;;;4.80;1.02;;;11.40;99.90;;;;;;5102867;28;20028;-80
2022/10/09 08:11:19;;;;;;;4.15;1.10;;;11.50;99.90;;;;;;5104992;28;20055;-78
2022/10/09 08:13:48;;;;;;;3.10;1.27;;;11.50;99.90;;;;;;5105788;28;20103;-79
2022/10/09 08:16:14;;;;;;;11.07;3.15;;;11.60;99.90;;;;;;5105007;28;20024;-80
2022/10/09 08:18:40;;;;;;;4.53;1.38;;;11.60;99.90;;;;;;5105032;28;20027;-78
2022/10/09 08:21:09;;;;;;;2.47;0.82;;;11.70;99.90;;;;;;5100486;28;20024;-79
2022/10/09 08:23:35;;;;;;;1.85;0.63;;;11.70;99.90;;;;;;5101414;28;20020;-79
2022/10/09 08:26:02;;;;;;;1.95;0.95;;;11.80;99.90;;;;;;5104553;28;20350;-80
2022/10/09 08:28:28;;;;;;;2.67;0.93;;;11.80;99.90;;;;;;5098210;28;20248;-80
2022/10/09 08:30:53;;;;;;;2.42;0.77;;;12.00;99.90;;;;;;5101796;28;20059;-79
2022/10/09 08:33:20;;;;;;;3.85;1.27;;;12.10;99.90;;;;;;5105785;28;20483;-79
2022/10/09 08:35:48;;;;;;;3.97;0.95;;;12.10;99.90;;;;;;5106662;28;20013;-80
2022/10/09 08:38:14;;;;;;;5.60;2.33;;;12.20;99.90;;;;;;5105017;28;20024;-79
2022/10/09 08:41:12;;;;;;;2.92;1.10;;;12.20;99.90;;;;;;5106893;28;20027;-79
2022/10/09 08:43:42;;;;;;;4.47;1.70;;;12.40;99.90;;;;;;5102251;28;20055;-80
2022/10/09 08:46:24;;;;;;;2.17;0.80;;;12.50;99.90;;;;;;5099514;28;20024;-79
2022/10/09 08:48:52;;;;;;;2.95;1.10;;;12.50;99.90;;;;;;5091668;28;20055;-80
2022/10/09 08:51:25;;;;;;;3.40;0.82;;;12.50;99.90;;;;;;5103243;28;20028;-79
2022/10/09 08:54:03;;;;;;;2.97;1.17;;;12.60;99.90;;;;;;5094362;28;20096;-78
2022/10/09 08:56:29;;;;;;;3.55;1.50;;;12.70;99.90;;;;;;5101869;28;20036;-79
2022/10/09 08:58:55;;;;;;;3.83;1.63;;;12.70;99.90;;;;;;5104639;28;20028;-79
2022/10/09 09:02:02;;;;;;;2.70;1.08;;;12.90;99.90;;;;;;5107833;28;20061;-80
2022/10/09 09:04:33;;;;;;;2.63;1.30;;;12.90;99.90;;;;;;5077166;28;20501;-83
2022/10/09 09:07:11;;;;;;;5.63;1.07;;;12.90;99.90;;;;;;5084897;28;20039;-84
2022/10/09 09:10:09;;;;;;;2.22;0.60;;;13.10;99.90;;;;;;5092096;28;20077;-83
2022/10/09 09:13:00;;;;;;;3.00;0.90;;;13.20;99.90;;;;;;5092394;28;20024;-83
2022/10/09 09:15:40;;;;;;;4.38;1.17;;;13.20;99.90;;;;;;5092826;28;20585;-82
2022/10/09 09:18:14;;;;;;;1.90;0.82;;;13.30;99.90;;;;;;5092929;28;20024;-82
2022/10/09 09:20:39;;;;;;;4.20;1.50;;;13.30;99.90;;;;;;5090570;28;20058;-81
2022/10/09 09:23:09;;;;;;;5.13;1.70;;;13.50;99.90;;;;;;5092028;28;20024;-82
2022/10/09 09:25:38;;;;;;;3.17;1.20;;;13.70;99.90;;;;;;5093451;28;20035;-82
2022/10/09 09:28:16;;;;;;;3.33;1.05;;;13.80;99.90;;;;;;5084118;28;20077;-80
2022/10/09 09:31:07;;;;;;;3.08;0.75;;;13.70;99.90;;;;;;5084781;28;20012;-82
2022/10/09 09:34:04;;;;;;;2.63;0.90;;;13.80;99.90;;;;;;5091983;28;20078;-82
2022/10/09 09:36:53;;;;;;;3.58;0.65;;;13.90;99.90;;;;;;5088443;28;20066;-82
2022/10/09 09:39:23;;;;;;;1.48;0.52;;;14.00;99.90;;;;;;5094253;28;20027;-81
2022/10/09 09:41:49;;;;;;;1.98;0.70;;;14.10;99.90;;;;;;5096399;28;20035;-81
2022/10/09 09:44:16;;;;;;;2.58;0.60;;;14.20;99.90;;;;;;5095495;28;20016;-81
2022/10/09 09:46:45;;;;;;;4.03;1.17;;;14.30;99.90;;;;;;5094394;28;20031;-81
2022/10/09 09:49:26;;;;;;;4.53;0.82;;;14.40;99.90;;;;;;5094002;28;20019;-83
2022/10/09 09:51:54;;;;;;;3.50;1.00;;;14.60;99.90;;;;;;5097676;28;20083;-82
2022/10/09 09:54:25;;;;;;;1.63;0.77;;;14.60;99.90;;;;;;5090993;28;20036;-83
2022/10/09 09:56:57;;;;;;;3.58;1.17;;;14.60;99.90;;;;;;5088867;28;20027;-82
2022/10/09 09:59:40;;;;;;;2.30;0.70;;;14.60;99.90;;;;;;5089635;28;20468;-82
2022/10/09 10:02:14;;;;;;;2.17;0.60;;;14.70;99.90;;;;;;5090687;28;20029;-82
2022/10/09 10:04:53;;;;;;;8.48;2.30;;;14.80;99.90;;;;;;5098696;28;20028;-81
2022/10/09 10:07:29;;;;;;;2.03;1.00;;;14.80;99.90;;;;;;5098901;28;20030;-81
2022/10/09 10:10:16;;;;;;;0.50;0.22;;;14.90;99.90;;;;;;5093434;28;20029;-82
2022/10/09 10:13:00;;;;;;;2.42;0.68;;;15.00;99.90;;;;;;5095854;28;20024;-82
2022/10/09 10:15:31;;;;;;;3.33;0.80;;;15.20;99.90;;;;;;5087472;28;20028;-82
2022/10/09 10:18:18;;;;;;;1.75;0.60;;;15.10;99.90;;;;;;5081474;28;20032;-83
2022/10/09 10:20:47;;;;;;;3.63;0.38;;;15.10;99.90;;;;;;5086701;28;20609;-82
2022/10/09 10:23:45;;;;;;;2.80;0.50;;;15.20;99.90;;;;;;5085247;28;20397;-82
2022/10/09 10:26:33;;;;;;;1.27;0.50;;;15.30;99.90;;;;;;5081342;28;20052;-81
2022/10/09 10:29:19;;;;;;;1.45;0.43;;;15.60;99.90;;;;;;5086970;28;20096;-82
2022/10/09 10:31:50;;;;;;;0.90;0.30;;;15.30;99.90;;;;;;5091380;28;20024;-82
2022/10/09 10:34:57;;;;;;;2.63;0.50;;;15.40;99.90;;;;;;5088686;28;20024;-82
2022/10/09 10:37:30;;;;;;;0.63;0.20;;;15.50;99.90;;;;;;5071427;28;20039;-82
2022/10/09 10:40:08;;;;;;;0.68;0.20;;;15.50;99.90;;;;;;5085839;28;20048;-83
2022/10/09 10:43:11;;;;;;;1.75;0.40;;;15.70;99.90;;;;;;5090144;28;20349;-82
2022/10/09 10:45:42;;;;;;;;;;;15.60;99.90;;;;;;5089439;28;20032;-82
2022/10/09 10:48:20;;;;;;;1.95;0.30;;;15.60;99.90;;;;;;5090894;28;19908;-82
2022/10/09 10:51:17;;;;;;;1.20;0.43;;;15.60;99.90;;;;;;5086211;28;20063;-82
2022/10/09 10:54:07;;;;;;;1.73;0.43;;;15.70;99.90;;;;;;5078391;28;20028;-82
2022/10/09 10:56:52;;;;;;;1.05;0.20;;;15.80;99.90;;;;;;5091651;28;20754;-82
2022/10/09 10:59:38;;;;;;;0.98;0.32;;;15.80;99.90;;;;;;5089285;28;20048;-82
2022/10/09 11:02:47;;;;;;;1.10;0.40;;;15.80;99.90;;;;;;5082596;28;20025;-85
2022/10/09 11:05:25;;;;;;;3.55;0.95;;;15.90;99.90;;;;;;5079900;28;20067;-85
2022/10/09 11:08:14;;;;;;;3.70;0.50;;;15.80;99.90;;;;;;5073444;28;20025;-85
2022/10/09 11:10:48;;;;;;;1.48;0.30;;;15.90;99.90;;;;;;5090433;28;20024;-85
2022/10/09 11:13:31;;;;;;;0.73;0.30;;;16.00;99.90;;;;;;5091461;28;20016;-85
2022/10/09 11:16:17;;;;;;;0.75;0.25;;;16.00;99.90;;;;;;5083799;28;20791;-85
2022/10/09 11:19:01;;;;;;;1.30;0.35;;;16.00;99.90;;;;;;5089017;28;20016;-85
2022/10/09 11:21:41;;;;;;;1.33;0.28;;;16.10;99.90;;;;;;5089649;28;20019;-85
2022/10/09 11:24:23;;;;;;;0.57;0.20;;;16.10;99.90;;;;;;5089212;28;20504;-86
2022/10/09 11:27:03;;;;;;;0.60;0.20;;;16.10;99.90;;;;;;5086564;28;20020;-85
2022/10/09 11:29:46;;;;;;;2.42;0.98;;;16.10;99.90;;;;;;5075699;28;20420;-85
2022/10/09 11:32:44;;;;;;;3.92;1.27;;;16.10;99.90;;;;;;5076955;28;20412;-85
2022/10/09 11:35:27;;;;;;;0.80;0.20;;;16.10;99.90;;;;;;5082697;28;20035;-85
2022/10/09 11:38:15;;;;;;;0.63;0.20;;;16.10;99.90;;;;;;5086654;28;20377;-84
2022/10/09 11:40:46;;;;;;;0.45;0.20;;;16.20;99.90;;;;;;5088295;28;20431;-85
2022/10/09 11:43:37;;;;;;;2.83;0.40;;;16.30;99.90;;;;;;5080737;28;20031;-85
2022/10/09 11:46:11;;;;;;;0.65;0.17;;;16.30;99.90;;;;;;5079262;28;20066;-84
2022/10/09 11:48:46;;;;;;;1.80;0.30;;;16.40;99.90;;;;;;5082879;28;20028;-85
2022/10/09 11:51:58;;;;;;;0.73;0.20;;;16.30;99.90;;;;;;5080257;28;20032;-85
2022/10/09 11:54:27;;;;;;;1.05;0.25;;;16.50;99.90;;;;;;5044677;28;20396;-85
2022/10/09 11:57:02;;;;;;;1.25;0.15;;;16.50;99.90;;;;;;5082818;28;20028;-85
2022/10/09 11:59:36;;;;;;;1.75;0.32;;;16.70;99.90;;;;;;5077171;28;20148;-85
2022/10/09 12:02:24;;;;;;;0.57;0.20;;;16.50;99.90;;;;;;5077064;28;20076;-84
2022/10/09 12:04:51;;;;;;;0.90;0.20;;;16.30;99.90;;;;;;5100220;28;20020;-85
2022/10/09 12:07:37;;;;;;;0.60;0.25;;;16.20;99.90;;;;;;5080528;28;20036;-85
2022/10/09 12:10:19;;;;;;;0.32;0.15;;;16.10;99.90;;;;;;5084367;28;20064;-85
2022/10/09 12:13:05;;;;;;;1.23;0.20;;;16.00;99.90;;;;;;5080505;28;20089;-84
2022/10/09 12:15:49;;;;;;;0.98;0.20;;;16.20;99.90;;;;;;5086307;28;20480;-86
2022/10/09 12:18:24;;;;;;;0.30;0.20;;;16.30;99.90;;;;;;5086151;28;20031;-85
2022/10/09 12:20:52;;;;;;;0.50;0.22;;;16.50;99.90;;;;;;5087052;28;20038;-85
2022/10/09 12:23:25;;;;;;;1.02;0.30;;;16.60;99.90;;;;;;5082164;28;20089;-84
2022/10/09 12:25:53;;;;;;;1.00;0.20;;;16.60;99.90;;;;;;5081627;28;20038;-84
2022/10/09 12:28:25;;;;;;;2.15;0.30;;;16.70;99.90;;;;;;5078079;28;20032;-84
2022/10/09 12:30:51;;;;;;;;;;;16.60;99.90;;;;;;5086962;28;20020;-83
2022/10/09 12:33:24;;;;;;;0.68;0.20;;;16.80;99.90;;;;;;5089553;28;19908;-82
2022/10/09 12:36:25;;;;;;;0.73;0.20;;;17.00;99.90;;;;;;5091821;28;21982;-83
2022/10/09 12:38:50;;;;;;;1.20;0.30;;;16.90;99.90;;;;;;5084370;28;20032;-83
2022/10/09 12:41:20;;;;;;;0.93;0.47;;;17.10;99.90;;;;;;5078763;28;20488;-84
2022/10/09 12:43:49;;;;;;;0.90;0.28;;;17.10;99.90;;;;;;5083989;28;20141;-84
2022/10/09 12:46:36;;;;;;;1.42;0.28;;;17.00;99.90;;;;;;5084485;28;20500;-85
2022/10/09 12:49:13;;;;;;;3.50;0.50;;;17.10;99.90;;;;;;5086726;28;20415;-84
2022/10/09 12:51:49;;;;;;;1.15;0.40;;;17.10;99.90;;;;;;5082844;28;20524;-84
2022/10/09 12:54:15;;;;;;;0.40;0.28;;;17.30;99.90;;;;;;5087929;28;20039;-85
2022/10/09 12:56:41;;;;;;;2.45;0.20;;;17.30;99.90;;;;;;5084749;28;20024;-84
2022/10/09 12:59:10;;;;;;;0.77;0.20;;;17.40;99.90;;;;;;5082393;28;20035;-84
2022/10/09 13:01:36;;;;;;;0.50;0.20;;;17.50;99.90;;;;;;5074016;28;20028;-85
2022/10/09 13:04:04;;;;;;;1.85;0.20;;;17.60;99.90;;;;;;5078874;28;20034;-83
2022/10/09 13:06:41;;;;;;;1.15;0.30;;;17.60;99.80;;;;;;5083340;28;20028;-83
2022/10/09 13:09:16;;;;;;;0.55;0.25;;;17.80;99.90;;;;;;5077400;28;20074;-83
2022/10/09 13:11:44;;;;;;;0.75;0.20;;;17.90;99.90;;;;;;5078953;28;20021;-82
2022/10/09 13:14:43;;;;;;;1.05;0.30;;;18.00;99.90;;;;;;5085695;28;20013;-82
2022/10/09 13:17:39;;;;;;;1.08;0.30;;;18.10;99.80;;;;;;5084435;28;20500;-82